SAS931 EKCH-KLAX
Flight info
| Callsign | SAS931 |
|---|---|
| Flight time | N/A |
| Altitude | 36000 |
| Route | GOLGA DCT RETKA DCT ISVIG/M081F360 DCT 68N010W 71N020W/M081F380 73N040W 73N060W DCT MEDPA/N0462F380 DCT 70N081W 65N094W/N0470F400 60N101W 55N105W DCT ITREK DCT LWT DCT TCH DCT DTA DCT BLD DCT OTOOL DCT BCALL DCT LEMMN DCT ANJLL ANJLL4 |
| Aircraft | A333/H-SDE3GHIJ2J3J5M1RVWXY/LB2D1 |
Departure
| Time | N/A |
|---|---|
| Airport | Copenhagen Kastrup Airport (EKCH) |
Arrival
| Time | 2026-05-06 20:32 |
|---|---|
| Airport | Los Angeles International Airport (KLAX) |
| Time | Latitude | Longitude | Altitude | Speed | Heading |
|---|---|---|---|---|---|
| 2026-05-06 17:30 | 56.93087 | -103.62747 | 38105 ft | 528 kts | 205° |
| 2026-05-06 17:30 | 56.89688 | -103.65353 | 38107 ft | 528 kts | 204° |
| 2026-05-06 17:31 | 56.82849 | -103.70583 | 38094 ft | 528 kts | 204° |
| 2026-05-06 17:31 | 56.76109 | -103.75715 | 38089 ft | 528 kts | 204° |
| 2026-05-06 17:32 | 56.69225 | -103.80939 | 38091 ft | 528 kts | 204° |
| 2026-05-06 17:32 | 56.62371 | -103.86092 | 38085 ft | 528 kts | 205° |
| 2026-05-06 17:33 | 56.55463 | -103.91311 | 38081 ft | 529 kts | 204° |
| 2026-05-06 17:33 | 56.48557 | -103.96491 | 38083 ft | 529 kts | 204° |
| 2026-05-06 17:34 | 56.41686 | -104.01620 | 38068 ft | 529 kts | 205° |
| 2026-05-06 17:34 | 56.34769 | -104.06763 | 38078 ft | 529 kts | 204° |
| 2026-05-06 17:35 | 56.27857 | -104.11885 | 38055 ft | 530 kts | 204° |
| 2026-05-06 17:35 | 56.20962 | -104.16972 | 38070 ft | 530 kts | 204° |
| 2026-05-06 17:36 | 56.10623 | -104.24565 | 38073 ft | 530 kts | 204° |
| 2026-05-06 17:36 | 56.03725 | -104.29604 | 38067 ft | 529 kts | 205° |
| 2026-05-06 17:37 | 55.96838 | -104.34618 | 38072 ft | 528 kts | 205° |
| 2026-05-06 17:37 | 55.89886 | -104.39660 | 38078 ft | 529 kts | 205° |
| 2026-05-06 17:38 | 55.83041 | -104.44602 | 38052 ft | 530 kts | 205° |
| 2026-05-06 17:38 | 55.76110 | -104.49590 | 38082 ft | 530 kts | 205° |
| 2026-05-06 17:39 | 55.69172 | -104.54565 | 38076 ft | 529 kts | 205° |
| 2026-05-06 17:39 | 55.62268 | -104.59493 | 38100 ft | 531 kts | 205° |
| 2026-05-06 17:40 | 55.55275 | -104.64465 | 38084 ft | 531 kts | 205° |
| 2026-05-06 17:40 | 55.48379 | -104.69353 | 38090 ft | 531 kts | 204° |
| 2026-05-06 17:41 | 55.41415 | -104.74271 | 38094 ft | 531 kts | 204° |
| 2026-05-06 17:41 | 55.34472 | -104.79152 | 38103 ft | 530 kts | 204° |
| 2026-05-06 17:42 | 55.27544 | -104.84007 | 38110 ft | 531 kts | 204° |
| 2026-05-06 17:42 | 55.20628 | -104.88830 | 38092 ft | 531 kts | 205° |
| 2026-05-06 17:43 | 55.13672 | -104.93668 | 38100 ft | 531 kts | 205° |
| 2026-05-06 17:43 | 55.06733 | -104.98474 | 38114 ft | 532 kts | 205° |
| 2026-05-06 17:44 | 54.99718 | -105.03299 | 38116 ft | 534 kts | 204° |
| 2026-05-06 17:44 | 54.92656 | -105.07793 | 38103 ft | 535 kts | 203° |
| 2026-05-06 17:45 | 54.85576 | -105.12302 | 38068 ft | 534 kts | 203° |
| 2026-05-06 17:45 | 54.78549 | -105.16769 | 38058 ft | 533 kts | 203° |
| 2026-05-06 17:46 | 54.71452 | -105.21262 | 38056 ft | 534 kts | 203° |
| 2026-05-06 17:46 | 54.64372 | -105.25727 | 38066 ft | 534 kts | 204° |
| 2026-05-06 17:47 | 54.57317 | -105.30160 | 38052 ft | 534 kts | 204° |
| 2026-05-06 17:47 | 54.50246 | -105.34584 | 38051 ft | 535 kts | 204° |
| 2026-05-06 17:48 | 54.43180 | -105.38993 | 38050 ft | 535 kts | 203° |
| 2026-05-06 17:48 | 54.36103 | -105.43389 | 38043 ft | 534 kts | 204° |
| 2026-05-06 17:49 | 54.28991 | -105.47792 | 38049 ft | 534 kts | 204° |
| 2026-05-06 17:49 | 54.21896 | -105.52168 | 38052 ft | 536 kts | 204° |
| 2026-05-06 17:50 | 54.14837 | -105.56507 | 38059 ft | 536 kts | 204° |
| 2026-05-06 17:50 | 54.07694 | -105.60881 | 38060 ft | 536 kts | 204° |
| 2026-05-06 17:51 | 54.00591 | -105.65211 | 38052 ft | 533 kts | 203° |
| 2026-05-06 17:51 | 53.93518 | -105.69511 | 38057 ft | 535 kts | 203° |
| 2026-05-06 17:52 | 53.86399 | -105.73827 | 38053 ft | 536 kts | 203° |
| 2026-05-06 17:52 | 53.79281 | -105.78120 | 38047 ft | 535 kts | 203° |
| 2026-05-06 17:53 | 53.72198 | -105.82381 | 38052 ft | 534 kts | 203° |
| 2026-05-06 17:53 | 53.65081 | -105.86643 | 38045 ft | 534 kts | 204° |
| 2026-05-06 17:54 | 53.57967 | -105.90891 | 38074 ft | 535 kts | 204° |
| 2026-05-06 17:54 | 53.50835 | -105.95136 | 38037 ft | 536 kts | 203° |
| 2026-05-06 17:55 | 53.43729 | -105.99348 | 38075 ft | 535 kts | 203° |
| 2026-05-06 17:55 | 53.36634 | -106.03537 | 38079 ft | 535 kts | 203° |
| 2026-05-06 17:56 | 53.29551 | -106.07709 | 38072 ft | 534 kts | 204° |
| 2026-05-06 17:56 | 53.22404 | -106.11898 | 38075 ft | 536 kts | 204° |
| 2026-05-06 17:57 | 53.15280 | -106.16061 | 38076 ft | 535 kts | 204° |
| 2026-05-06 17:57 | 53.08189 | -106.20188 | 38071 ft | 535 kts | 204° |
| 2026-05-06 17:58 | 53.01067 | -106.24326 | 38051 ft | 534 kts | 204° |
| 2026-05-06 17:58 | 52.93942 | -106.28447 | 38054 ft | 536 kts | 204° |
| 2026-05-06 17:59 | 52.86779 | -106.32572 | 38041 ft | 536 kts | 204° |
| 2026-05-06 17:59 | 52.79681 | -106.36652 | 38031 ft | 535 kts | 204° |
| 2026-05-06 18:00 | 52.72566 | -106.40722 | 38052 ft | 534 kts | 204° |
| 2026-05-06 18:00 | 52.65564 | -106.44714 | 38031 ft | 535 kts | 204° |
| 2026-05-06 18:01 | 52.58447 | -106.48761 | 38059 ft | 535 kts | 204° |
| 2026-05-06 18:01 | 52.51301 | -106.52809 | 38046 ft | 534 kts | 204° |
| 2026-05-06 18:02 | 52.44217 | -106.56811 | 38064 ft | 534 kts | 204° |
| 2026-05-06 18:02 | 52.37101 | -106.60811 | 38082 ft | 534 kts | 204° |
| 2026-05-06 18:03 | 52.29989 | -106.64796 | 38090 ft | 532 kts | 204° |
| 2026-05-06 18:03 | 52.22848 | -106.68791 | 38088 ft | 533 kts | 203° |
| 2026-05-06 18:04 | 52.15740 | -106.72746 | 38101 ft | 532 kts | 203° |
| 2026-05-06 18:04 | 52.08637 | -106.76689 | 38096 ft | 534 kts | 204° |
| 2026-05-06 18:05 | 52.01493 | -106.80638 | 38094 ft | 533 kts | 204° |
| 2026-05-06 18:05 | 51.94423 | -106.84539 | 38096 ft | 532 kts | 204° |
| 2026-05-06 18:06 | 51.87304 | -106.88449 | 38077 ft | 532 kts | 204° |
| 2026-05-06 18:06 | 51.80205 | -106.92336 | 38067 ft | 533 kts | 204° |
| 2026-05-06 18:07 | 51.73088 | -106.96220 | 38073 ft | 533 kts | 204° |
| 2026-05-06 18:07 | 51.65945 | -107.00105 | 38048 ft | 534 kts | 204° |
| 2026-05-06 18:08 | 51.58911 | -107.03920 | 38039 ft | 534 kts | 204° |
| 2026-05-06 18:08 | 51.51767 | -107.07782 | 38046 ft | 535 kts | 204° |
| 2026-05-06 18:09 | 51.44651 | -107.11613 | 38033 ft | 534 kts | 204° |
| 2026-05-06 18:09 | 51.37518 | -107.15443 | 38037 ft | 535 kts | 204° |
| 2026-05-06 18:10 | 51.30367 | -107.19269 | 38031 ft | 534 kts | 204° |
| 2026-05-06 18:10 | 51.23266 | -107.23055 | 38029 ft | 534 kts | 204° |
| 2026-05-06 18:11 | 51.16134 | -107.26846 | 38021 ft | 533 kts | 204° |
| 2026-05-06 18:11 | 51.09003 | -107.30625 | 38032 ft | 534 kts | 204° |
| 2026-05-06 18:12 | 51.01872 | -107.34391 | 38047 ft | 534 kts | 204° |
| 2026-05-06 18:12 | 50.94753 | -107.38137 | 38047 ft | 534 kts | 204° |
| 2026-05-06 18:13 | 50.87577 | -107.41905 | 38032 ft | 535 kts | 204° |
| 2026-05-06 18:13 | 50.80456 | -107.45625 | 38039 ft | 533 kts | 204° |
| 2026-05-06 18:14 | 50.73336 | -107.49339 | 38030 ft | 534 kts | 204° |
| 2026-05-06 18:14 | 50.66148 | -107.53072 | 38027 ft | 534 kts | 204° |
| 2026-05-06 18:15 | 50.59000 | -107.56776 | 38026 ft | 533 kts | 204° |
| 2026-05-06 18:15 | 50.51864 | -107.60460 | 38028 ft | 534 kts | 204° |
| 2026-05-06 18:16 | 50.44734 | -107.64131 | 38024 ft | 533 kts | 204° |
| 2026-05-06 18:16 | 50.37578 | -107.67804 | 38040 ft | 536 kts | 203° |
| 2026-05-06 18:17 | 50.30349 | -107.71501 | 38027 ft | 535 kts | 203° |
| 2026-05-06 18:17 | 50.23416 | -107.75852 | 38033 ft | 531 kts | 208° |
| 2026-05-06 18:18 | 50.16485 | -107.80237 | 38025 ft | 532 kts | 207° |
| 2026-05-06 18:18 | 50.09511 | -107.84615 | 38025 ft | 533 kts | 207° |
| 2026-05-06 18:19 | 50.02525 | -107.88985 | 38016 ft | 532 kts | 208° |
| 2026-05-06 18:19 | 49.95546 | -107.93340 | 38032 ft | 533 kts | 207° |
| 2026-05-06 18:20 | 49.88604 | -107.97657 | 38021 ft | 532 kts | 208° |
| 2026-05-06 18:20 | 49.81625 | -108.01984 | 38015 ft | 532 kts | 208° |
| 2026-05-06 18:21 | 49.74669 | -108.06282 | 38014 ft | 532 kts | 208° |
| 2026-05-06 18:21 | 49.67682 | -108.10586 | 38012 ft | 532 kts | 208° |
| 2026-05-06 18:22 | 49.60702 | -108.14874 | 37994 ft | 533 kts | 208° |
| 2026-05-06 18:22 | 49.53739 | -108.19137 | 37994 ft | 533 kts | 208° |
| 2026-05-06 18:23 | 49.46726 | -108.23418 | 37993 ft | 532 kts | 208° |
| 2026-05-06 18:23 | 49.39769 | -108.27651 | 37997 ft | 534 kts | 208° |
| 2026-05-06 18:24 | 49.32796 | -108.31881 | 38001 ft | 533 kts | 208° |
| 2026-05-06 18:24 | 49.25817 | -108.36103 | 37994 ft | 533 kts | 208° |
| 2026-05-06 18:25 | 49.18812 | -108.40327 | 38007 ft | 534 kts | 208° |
| 2026-05-06 18:25 | 49.11773 | -108.44556 | 38014 ft | 533 kts | 208° |
| 2026-05-06 18:26 | 49.04782 | -108.48747 | 38012 ft | 533 kts | 208° |
| 2026-05-06 18:26 | 48.97791 | -108.52926 | 38008 ft | 534 kts | 208° |
| 2026-05-06 18:27 | 48.90790 | -108.57095 | 38015 ft | 535 kts | 208° |
| 2026-05-06 18:27 | 48.83718 | -108.61294 | 37981 ft | 534 kts | 208° |
| 2026-05-06 18:28 | 48.76711 | -108.65445 | 37997 ft | 536 kts | 207° |
| 2026-05-06 18:28 | 48.69685 | -108.69591 | 38002 ft | 535 kts | 207° |
| 2026-05-06 18:29 | 48.62666 | -108.73724 | 38014 ft | 536 kts | 207° |
| 2026-05-06 18:29 | 48.55582 | -108.77879 | 38019 ft | 534 kts | 207° |
| 2026-05-06 18:30 | 48.48565 | -108.81986 | 38026 ft | 536 kts | 207° |
| 2026-05-06 18:30 | 48.41493 | -108.86110 | 38026 ft | 536 kts | 207° |
| 2026-05-06 18:31 | 48.34478 | -108.90190 | 38026 ft | 536 kts | 207° |
| 2026-05-06 18:31 | 48.27392 | -108.94296 | 38032 ft | 535 kts | 207° |
| 2026-05-06 18:32 | 48.20341 | -108.98374 | 38013 ft | 537 kts | 207° |
| 2026-05-06 18:32 | 48.13309 | -109.02428 | 38027 ft | 538 kts | 207° |
| 2026-05-06 18:33 | 48.06191 | -109.06519 | 38012 ft | 537 kts | 207° |
| 2026-05-06 18:33 | 47.99184 | -109.10532 | 38014 ft | 534 kts | 207° |
| 2026-05-06 18:34 | 47.92119 | -109.14570 | 38023 ft | 537 kts | 207° |
| 2026-05-06 18:34 | 47.88628 | -109.16560 | 38249 ft | 534 kts | 207° |
| 2026-05-06 18:34 | 47.85222 | -109.18504 | 38425 ft | 531 kts | 208° |
| 2026-05-06 18:35 | 47.81761 | -109.20869 | 38628 ft | 525 kts | 211° |
| 2026-05-06 18:35 | 47.78231 | -109.22652 | 38804 ft | 533 kts | 199° |
| 2026-05-06 18:35 | 47.74625 | -109.23897 | 38997 ft | 531 kts | 199° |
| 2026-05-06 18:35 | 47.70943 | -109.25191 | 39172 ft | 531 kts | 197° |
| 2026-05-06 18:36 | 47.67303 | -109.26324 | 39346 ft | 530 kts | 197° |
| 2026-05-06 18:36 | 47.63639 | -109.27452 | 39518 ft | 528 kts | 198° |
| 2026-05-06 18:36 | 47.60130 | -109.29109 | 39679 ft | 517 kts | 209° |
| 2026-05-06 18:36 | 47.56791 | -109.31175 | 39841 ft | 516 kts | 208° |
| 2026-05-06 18:37 | 47.53414 | -109.33147 | 39988 ft | 516 kts | 207° |
| 2026-05-06 18:37 | 47.51135 | -109.34467 | 40025 ft | 517 kts | 207° |
| 2026-05-06 18:37 | 47.43180 | -109.39043 | 40004 ft | 523 kts | 207° |
| 2026-05-06 18:38 | 47.36309 | -109.42980 | 40010 ft | 526 kts | 207° |
| 2026-05-06 18:38 | 47.29350 | -109.46959 | 40008 ft | 530 kts | 207° |
| 2026-05-06 18:39 | 47.22613 | -109.50794 | 40016 ft | 532 kts | 207° |
| 2026-05-06 18:40 | 47.12093 | -109.56768 | 40020 ft | 535 kts | 207° |
| 2026-05-06 18:40 | 47.05065 | -109.60719 | 40018 ft | 537 kts | 205° |
| 2026-05-06 18:41 | 46.97720 | -109.63859 | 40025 ft | 541 kts | 201° |
| 2026-05-06 18:41 | 46.90435 | -109.66956 | 40020 ft | 542 kts | 201° |
| 2026-05-06 18:42 | 46.83041 | -109.70097 | 39999 ft | 542 kts | 200° |
| 2026-05-06 18:42 | 46.75683 | -109.73212 | 40006 ft | 542 kts | 201° |
| 2026-05-06 18:43 | 46.68381 | -109.76292 | 40015 ft | 542 kts | 201° |
| 2026-05-06 18:43 | 46.61058 | -109.79378 | 40019 ft | 542 kts | 200° |
| 2026-05-06 18:44 | 46.53736 | -109.82452 | 40027 ft | 542 kts | 200° |
| 2026-05-06 18:44 | 46.46416 | -109.85520 | 40030 ft | 542 kts | 200° |
| 2026-05-06 18:45 | 46.39014 | -109.88612 | 40036 ft | 543 kts | 200° |
| 2026-05-06 18:45 | 46.31692 | -109.91657 | 40037 ft | 543 kts | 200° |
| 2026-05-06 18:46 | 46.24362 | -109.94703 | 40041 ft | 543 kts | 200° |
| 2026-05-06 18:46 | 46.16969 | -109.97765 | 40051 ft | 543 kts | 200° |
| 2026-05-06 18:47 | 46.09626 | -110.00798 | 40061 ft | 543 kts | 200° |
| 2026-05-06 18:47 | 46.02255 | -110.03835 | 40063 ft | 544 kts | 200° |
| 2026-05-06 18:48 | 45.94876 | -110.06863 | 40065 ft | 544 kts | 200° |
| 2026-05-06 18:48 | 45.87504 | -110.09883 | 40069 ft | 544 kts | 200° |
| 2026-05-06 18:49 | 45.80176 | -110.12874 | 40070 ft | 544 kts | 200° |
| 2026-05-06 18:49 | 45.72795 | -110.15881 | 40098 ft | 542 kts | 200° |
| 2026-05-06 18:50 | 45.65453 | -110.18861 | 40110 ft | 542 kts | 200° |
| 2026-05-06 18:50 | 45.58096 | -110.21847 | 40084 ft | 542 kts | 200° |
| 2026-05-06 18:51 | 45.50727 | -110.24820 | 40098 ft | 542 kts | 200° |
| 2026-05-06 18:51 | 45.43413 | -110.27768 | 40111 ft | 542 kts | 200° |
| 2026-05-06 18:52 | 45.36031 | -110.30731 | 40123 ft | 542 kts | 200° |
| 2026-05-06 18:52 | 45.28657 | -110.33688 | 40120 ft | 543 kts | 200° |
| 2026-05-06 18:53 | 45.21240 | -110.36651 | 40146 ft | 543 kts | 200° |
| 2026-05-06 18:53 | 45.13905 | -110.39573 | 40142 ft | 543 kts | 200° |
| 2026-05-06 18:54 | 45.06482 | -110.42526 | 40154 ft | 543 kts | 199° |
| 2026-05-06 18:54 | 44.99147 | -110.45432 | 40161 ft | 543 kts | 199° |
| 2026-05-06 18:55 | 44.91762 | -110.48350 | 40169 ft | 543 kts | 200° |
| 2026-05-06 18:55 | 44.84430 | -110.51243 | 40143 ft | 542 kts | 200° |
| 2026-05-06 18:56 | 44.77061 | -110.54140 | 40140 ft | 540 kts | 200° |
| 2026-05-06 18:56 | 44.69711 | -110.57024 | 40142 ft | 540 kts | 200° |
| 2026-05-06 18:57 | 44.62394 | -110.59884 | 40145 ft | 540 kts | 200° |
| 2026-05-06 18:57 | 44.55069 | -110.62743 | 40143 ft | 541 kts | 199° |
| 2026-05-06 18:58 | 44.47706 | -110.65609 | 40135 ft | 541 kts | 199° |
| 2026-05-06 18:58 | 44.40356 | -110.68462 | 40137 ft | 541 kts | 199° |
| 2026-05-06 18:59 | 44.32981 | -110.71315 | 40138 ft | 541 kts | 199° |
| 2026-05-06 18:59 | 44.25593 | -110.74170 | 40130 ft | 542 kts | 199° |
| 2026-05-06 19:00 | 44.18229 | -110.77006 | 40143 ft | 541 kts | 199° |
| 2026-05-06 19:00 | 44.10919 | -110.79811 | 40170 ft | 540 kts | 199° |
| 2026-05-06 19:01 | 44.03569 | -110.82627 | 40176 ft | 540 kts | 199° |
| 2026-05-06 19:01 | 43.96235 | -110.85431 | 40172 ft | 539 kts | 199° |
| 2026-05-06 19:02 | 43.88884 | -110.88233 | 40177 ft | 541 kts | 199° |
| 2026-05-06 19:02 | 43.81522 | -110.91029 | 40188 ft | 540 kts | 199° |
| 2026-05-06 19:03 | 43.74189 | -110.93811 | 40188 ft | 540 kts | 199° |
| 2026-05-06 19:03 | 43.66875 | -110.96579 | 40189 ft | 540 kts | 198° |
| 2026-05-06 19:04 | 43.59503 | -110.99359 | 40197 ft | 540 kts | 199° |
| 2026-05-06 19:04 | 43.52155 | -111.02123 | 40178 ft | 541 kts | 198° |
| 2026-05-06 19:05 | 43.44775 | -111.04896 | 40172 ft | 541 kts | 198° |
| 2026-05-06 19:05 | 43.37447 | -111.07639 | 40165 ft | 542 kts | 198° |
| 2026-05-06 19:06 | 43.30069 | -111.10394 | 40174 ft | 542 kts | 198° |
| 2026-05-06 19:06 | 43.22676 | -111.13147 | 40168 ft | 542 kts | 198° |
| 2026-05-06 19:07 | 43.15299 | -111.15890 | 40178 ft | 543 kts | 198° |
| 2026-05-06 19:07 | 43.07907 | -111.18630 | 40180 ft | 543 kts | 198° |
| 2026-05-06 19:08 | 43.00526 | -111.21360 | 40184 ft | 543 kts | 198° |
| 2026-05-06 19:08 | 42.93073 | -111.24107 | 40194 ft | 544 kts | 198° |
| 2026-05-06 19:09 | 42.85715 | -111.26817 | 40168 ft | 543 kts | 198° |
| 2026-05-06 19:09 | 42.78286 | -111.29542 | 40186 ft | 542 kts | 198° |
| 2026-05-06 19:10 | 42.70916 | -111.32239 | 40186 ft | 543 kts | 198° |
| 2026-05-06 19:10 | 42.63562 | -111.34926 | 40176 ft | 543 kts | 198° |
| 2026-05-06 19:11 | 42.56141 | -111.37627 | 40168 ft | 543 kts | 198° |
| 2026-05-06 19:11 | 42.48736 | -111.40319 | 40154 ft | 543 kts | 198° |
| 2026-05-06 19:12 | 42.41343 | -111.42999 | 40161 ft | 543 kts | 198° |
| 2026-05-06 19:12 | 42.34047 | -111.45637 | 40164 ft | 544 kts | 198° |
| 2026-05-06 19:13 | 42.26652 | -111.48305 | 40169 ft | 543 kts | 198° |
| 2026-05-06 19:13 | 42.19233 | -111.50977 | 40166 ft | 543 kts | 198° |
| 2026-05-06 19:14 | 42.11861 | -111.53621 | 40161 ft | 543 kts | 198° |
| 2026-05-06 19:14 | 42.04456 | -111.56272 | 40161 ft | 543 kts | 198° |
| 2026-05-06 19:15 | 41.97072 | -111.58913 | 40160 ft | 543 kts | 198° |
| 2026-05-06 19:15 | 41.89659 | -111.61553 | 40187 ft | 543 kts | 198° |
| 2026-05-06 19:16 | 41.82334 | -111.64159 | 40178 ft | 543 kts | 197° |
| 2026-05-06 19:16 | 41.74941 | -111.66782 | 40207 ft | 543 kts | 197° |
| 2026-05-06 19:17 | 41.67522 | -111.69407 | 40206 ft | 543 kts | 196° |
| 2026-05-06 19:17 | 41.60131 | -111.72018 | 40193 ft | 543 kts | 197° |
| 2026-05-06 19:18 | 41.52754 | -111.74613 | 40192 ft | 544 kts | 197° |
| 2026-05-06 19:18 | 41.45292 | -111.77235 | 40206 ft | 544 kts | 197° |
| 2026-05-06 19:19 | 41.37906 | -111.79826 | 40208 ft | 544 kts | 197° |
| 2026-05-06 19:19 | 41.30415 | -111.82448 | 40221 ft | 545 kts | 196° |
| 2026-05-06 19:20 | 41.24233 | -111.84602 | 40231 ft | 545 kts | 196° |
| 2026-05-06 19:20 | 41.15548 | -111.87627 | 40233 ft | 546 kts | 196° |
| 2026-05-06 19:21 | 41.08119 | -111.90206 | 40233 ft | 545 kts | 196° |
| 2026-05-06 19:21 | 41.00685 | -111.92781 | 40238 ft | 545 kts | 197° |
| 2026-05-06 19:22 | 40.93273 | -111.95342 | 40236 ft | 546 kts | 196° |
| 2026-05-06 19:22 | 40.85859 | -111.97900 | 40207 ft | 545 kts | 196° |
| 2026-05-06 19:23 | 40.78477 | -112.00452 | 40210 ft | 545 kts | 196° |
| 2026-05-06 19:23 | 40.71033 | -112.03024 | 40214 ft | 545 kts | 196° |
| 2026-05-06 19:24 | 40.63596 | -112.05586 | 40222 ft | 544 kts | 196° |
| 2026-05-06 19:24 | 40.56145 | -112.08144 | 40224 ft | 544 kts | 196° |
| 2026-05-06 19:25 | 40.48724 | -112.10689 | 40218 ft | 544 kts | 196° |
| 2026-05-06 19:25 | 40.41305 | -112.13229 | 40210 ft | 543 kts | 196° |
| 2026-05-06 19:26 | 40.33860 | -112.15771 | 40199 ft | 543 kts | 196° |
| 2026-05-06 19:26 | 40.26486 | -112.18280 | 40201 ft | 543 kts | 196° |
| 2026-05-06 19:27 | 40.19223 | -112.20748 | 40203 ft | 542 kts | 195° |
| 2026-05-06 19:27 | 40.11768 | -112.23275 | 40203 ft | 542 kts | 195° |
| 2026-05-06 19:28 | 40.04348 | -112.25786 | 40199 ft | 542 kts | 195° |
| 2026-05-06 19:28 | 39.96948 | -112.28284 | 40195 ft | 542 kts | 196° |
| 2026-05-06 19:29 | 39.89532 | -112.30780 | 40198 ft | 542 kts | 196° |
| 2026-05-06 19:29 | 39.82339 | -112.33197 | 40186 ft | 541 kts | 195° |
| 2026-05-06 19:30 | 39.74944 | -112.35677 | 40200 ft | 542 kts | 195° |
| 2026-05-06 19:30 | 39.67506 | -112.38165 | 40207 ft | 542 kts | 195° |
| 2026-05-06 19:31 | 39.60139 | -112.40623 | 40213 ft | 542 kts | 195° |
| 2026-05-06 19:31 | 39.49051 | -112.44315 | 40219 ft | 542 kts | 195° |
| 2026-05-06 19:32 | 39.41613 | -112.46784 | 40218 ft | 541 kts | 195° |
| 2026-05-06 19:32 | 39.34182 | -112.49245 | 40222 ft | 541 kts | 195° |
| 2026-05-06 19:33 | 39.27079 | -112.52644 | 40218 ft | 535 kts | 215° |
| 2026-05-06 19:33 | 39.20649 | -112.57719 | 40218 ft | 537 kts | 213° |
| 2026-05-06 19:34 | 39.14104 | -112.62629 | 40237 ft | 537 kts | 213° |
| 2026-05-06 19:34 | 39.07580 | -112.67503 | 40244 ft | 537 kts | 212° |
| 2026-05-06 19:35 | 39.01053 | -112.72368 | 40246 ft | 536 kts | 212° |
| 2026-05-06 19:35 | 38.94467 | -112.77262 | 40247 ft | 535 kts | 212° |
| 2026-05-06 19:36 | 38.87969 | -112.82084 | 40238 ft | 536 kts | 212° |
| 2026-05-06 19:36 | 38.81434 | -112.86920 | 40236 ft | 535 kts | 212° |
| 2026-05-06 19:37 | 38.74853 | -112.91780 | 40237 ft | 536 kts | 212° |
| 2026-05-06 19:37 | 38.69405 | -112.95798 | 40244 ft | 536 kts | 212° |
| 2026-05-06 19:38 | 38.61791 | -113.01399 | 40239 ft | 535 kts | 212° |
| 2026-05-06 19:38 | 38.55258 | -113.06195 | 40240 ft | 534 kts | 212° |
| 2026-05-06 19:39 | 38.48716 | -113.10986 | 40243 ft | 536 kts | 212° |
| 2026-05-06 19:39 | 38.42130 | -113.15799 | 40245 ft | 537 kts | 212° |
| 2026-05-06 19:40 | 38.35561 | -113.20589 | 40248 ft | 536 kts | 212° |
| 2026-05-06 19:40 | 38.29009 | -113.25359 | 40251 ft | 535 kts | 212° |
| 2026-05-06 19:41 | 38.22455 | -113.30118 | 40257 ft | 535 kts | 212° |
| 2026-05-06 19:41 | 38.15867 | -113.34893 | 40264 ft | 535 kts | 212° |
| 2026-05-06 19:42 | 38.09299 | -113.39642 | 40272 ft | 535 kts | 211° |
| 2026-05-06 19:42 | 38.02739 | -113.44376 | 40274 ft | 535 kts | 211° |
| 2026-05-06 19:43 | 37.96169 | -113.49109 | 40269 ft | 534 kts | 211° |
| 2026-05-06 19:43 | 37.89637 | -113.53804 | 40270 ft | 534 kts | 211° |
| 2026-05-06 19:44 | 37.83134 | -113.58468 | 40245 ft | 534 kts | 211° |
| 2026-05-06 19:44 | 37.76583 | -113.63157 | 40249 ft | 534 kts | 211° |
| 2026-05-06 19:45 | 37.70023 | -113.67842 | 40237 ft | 533 kts | 211° |
| 2026-05-06 19:45 | 37.63524 | -113.72474 | 40244 ft | 532 kts | 211° |
| 2026-05-06 19:46 | 37.56961 | -113.77143 | 40230 ft | 533 kts | 211° |
| 2026-05-06 19:46 | 37.50392 | -113.81807 | 40225 ft | 533 kts | 211° |
| 2026-05-06 19:47 | 37.43861 | -113.86435 | 40230 ft | 534 kts | 210° |
| 2026-05-06 19:47 | 37.37279 | -113.91088 | 40219 ft | 533 kts | 210° |
| 2026-05-06 19:48 | 37.30735 | -113.95706 | 40200 ft | 533 kts | 210° |
| 2026-05-06 19:48 | 37.24210 | -114.00301 | 40160 ft | 532 kts | 210° |
| 2026-05-06 19:49 | 37.17616 | -114.04935 | 40140 ft | 533 kts | 210° |
| 2026-05-06 19:49 | 37.11046 | -114.09544 | 40115 ft | 533 kts | 210° |
| 2026-05-06 19:50 | 37.04485 | -114.14135 | 40116 ft | 534 kts | 210° |
| 2026-05-06 19:50 | 36.97874 | -114.18754 | 40112 ft | 534 kts | 210° |
| 2026-05-06 19:51 | 36.91332 | -114.23316 | 40104 ft | 531 kts | 210° |
| 2026-05-06 19:51 | 36.84800 | -114.27859 | 40077 ft | 532 kts | 210° |
| 2026-05-06 19:52 | 36.78287 | -114.32383 | 40068 ft | 531 kts | 210° |
| 2026-05-06 19:52 | 36.71725 | -114.36930 | 40073 ft | 531 kts | 210° |
| 2026-05-06 19:53 | 36.65147 | -114.41480 | 40082 ft | 529 kts | 210° |
| 2026-05-06 19:53 | 36.58625 | -114.45983 | 40082 ft | 529 kts | 210° |
| 2026-05-06 19:54 | 36.52061 | -114.50506 | 40074 ft | 529 kts | 209° |
| 2026-05-06 19:54 | 36.45513 | -114.55007 | 40073 ft | 529 kts | 210° |
| 2026-05-06 19:55 | 36.39121 | -114.59394 | 40087 ft | 528 kts | 209° |
| 2026-05-06 19:55 | 36.32643 | -114.63833 | 40083 ft | 529 kts | 209° |
| 2026-05-06 19:56 | 36.26116 | -114.68295 | 40079 ft | 528 kts | 208° |
| 2026-05-06 19:56 | 36.19580 | -114.72754 | 40080 ft | 528 kts | 208° |
| 2026-05-06 19:57 | 36.13054 | -114.77199 | 40067 ft | 528 kts | 208° |
| 2026-05-06 19:57 | 36.06481 | -114.81668 | 40083 ft | 526 kts | 208° |
| 2026-05-06 19:58 | 36.00022 | -114.86158 | 40074 ft | 525 kts | 215° |
| 2026-05-06 19:58 | 35.97263 | -114.89123 | 40073 ft | 522 kts | 231° |
| 2026-05-06 19:58 | 35.95009 | -114.92693 | 40124 ft | 521 kts | 234° |
| 2026-05-06 19:59 | 35.90218 | -114.99670 | 40077 ft | 525 kts | 231° |
| 2026-05-06 19:59 | 35.85406 | -115.06514 | 40094 ft | 525 kts | 231° |
| 2026-05-06 20:00 | 35.80519 | -115.13440 | 40104 ft | 526 kts | 231° |
| 2026-05-06 20:00 | 35.75672 | -115.20295 | 40103 ft | 525 kts | 231° |
| 2026-05-06 20:01 | 35.70812 | -115.27154 | 40111 ft | 524 kts | 231° |
| 2026-05-06 20:01 | 35.65970 | -115.33977 | 40126 ft | 524 kts | 231° |
| 2026-05-06 20:02 | 35.61112 | -115.40807 | 40134 ft | 523 kts | 231° |
| 2026-05-06 20:02 | 35.56244 | -115.47637 | 40138 ft | 524 kts | 231° |
| 2026-05-06 20:03 | 35.51376 | -115.54455 | 40152 ft | 524 kts | 230° |
| 2026-05-06 20:03 | 35.46504 | -115.61261 | 40138 ft | 524 kts | 230° |
| 2026-05-06 20:04 | 35.41629 | -115.68062 | 40137 ft | 524 kts | 230° |
| 2026-05-06 20:04 | 35.36765 | -115.74831 | 40134 ft | 524 kts | 230° |
| 2026-05-06 20:05 | 35.31874 | -115.81626 | 40116 ft | 524 kts | 230° |
| 2026-05-06 20:05 | 35.26997 | -115.88388 | 40100 ft | 525 kts | 230° |
| 2026-05-06 20:06 | 35.22074 | -115.95199 | 40080 ft | 526 kts | 230° |
| 2026-05-06 20:06 | 35.17169 | -116.01972 | 40064 ft | 525 kts | 230° |
| 2026-05-06 20:07 | 35.12277 | -116.08715 | 40072 ft | 524 kts | 230° |
| 2026-05-06 20:07 | 35.07376 | -116.15458 | 40079 ft | 524 kts | 230° |
| 2026-05-06 20:08 | 35.02632 | -116.21967 | 40088 ft | 505 kts | 230° |
| 2026-05-06 20:08 | 35.00314 | -116.25146 | 39816 ft | 494 kts | 230° |
| 2026-05-06 20:08 | 34.98005 | -116.28307 | 38961 ft | 496 kts | 230° |
| 2026-05-06 20:09 | 34.95669 | -116.31504 | 37937 ft | 499 kts | 230° |
| 2026-05-06 20:09 | 34.93332 | -116.34702 | 36929 ft | 503 kts | 230° |
| 2026-05-06 20:09 | 34.90956 | -116.37946 | 35962 ft | 504 kts | 230° |
| 2026-05-06 20:09 | 34.88451 | -116.40907 | 34900 ft | 508 kts | 218° |
| 2026-05-06 20:10 | 34.85451 | -116.43361 | 33787 ft | 513 kts | 212° |
| 2026-05-06 20:10 | 34.82441 | -116.45782 | 32793 ft | 515 kts | 213° |
| 2026-05-06 20:10 | 34.79408 | -116.48226 | 31895 ft | 515 kts | 213° |
| 2026-05-06 20:10 | 34.76378 | -116.50671 | 31497 ft | 502 kts | 213° |
| 2026-05-06 20:11 | 34.73488 | -116.52996 | 30909 ft | 497 kts | 213° |
| 2026-05-06 20:11 | 34.70544 | -116.55364 | 30048 ft | 497 kts | 213° |
| 2026-05-06 20:11 | 34.67646 | -116.57694 | 29249 ft | 495 kts | 213° |
| 2026-05-06 20:11 | 34.64774 | -116.60001 | 28579 ft | 489 kts | 213° |
| 2026-05-06 20:12 | 34.61900 | -116.62309 | 27932 ft | 484 kts | 213° |
| 2026-05-06 20:12 | 34.59085 | -116.64566 | 27314 ft | 477 kts | 213° |
| 2026-05-06 20:12 | 34.56348 | -116.66969 | 26641 ft | 472 kts | 217° |
| 2026-05-06 20:12 | 34.53725 | -116.69340 | 26008 ft | 467 kts | 216° |
| 2026-05-06 20:13 | 34.51066 | -116.71730 | 25341 ft | 462 kts | 216° |
| 2026-05-06 20:13 | 34.48697 | -116.73857 | 24790 ft | 457 kts | 216° |
| 2026-05-06 20:13 | 34.46491 | -116.75832 | 24228 ft | 453 kts | 216° |
| 2026-05-06 20:13 | 34.43898 | -116.78153 | 23609 ft | 447 kts | 216° |
| 2026-05-06 20:14 | 34.41401 | -116.80389 | 22984 ft | 442 kts | 216° |
| 2026-05-06 20:14 | 34.38880 | -116.82616 | 22330 ft | 439 kts | 216° |
| 2026-05-06 20:14 | 34.36369 | -116.84834 | 21690 ft | 436 kts | 216° |
| 2026-05-06 20:14 | 34.34014 | -116.86916 | 21087 ft | 432 kts | 216° |
| 2026-05-06 20:15 | 34.31549 | -116.89086 | 20484 ft | 429 kts | 216° |
| 2026-05-06 20:15 | 34.29093 | -116.91254 | 19872 ft | 426 kts | 216° |
| 2026-05-06 20:15 | 34.26698 | -116.93362 | 19268 ft | 423 kts | 216° |
| 2026-05-06 20:15 | 34.24283 | -116.95486 | 18663 ft | 420 kts | 216° |
| 2026-05-06 20:16 | 34.22030 | -116.97765 | 18038 ft | 417 kts | 228° |
| 2026-05-06 20:16 | 34.20402 | -117.00733 | 17421 ft | 409 kts | 249° |
| 2026-05-06 20:16 | 34.19522 | -117.03974 | 16872 ft | 402 kts | 257° |
| 2026-05-06 20:16 | 34.18676 | -117.07237 | 16346 ft | 398 kts | 255° |
| 2026-05-06 20:17 | 34.17823 | -117.10429 | 15854 ft | 393 kts | 255° |
| 2026-05-06 20:17 | 34.16965 | -117.13615 | 15330 ft | 389 kts | 255° |
| 2026-05-06 20:17 | 34.16119 | -117.16718 | 14821 ft | 386 kts | 255° |
| 2026-05-06 20:17 | 34.15261 | -117.19845 | 14275 ft | 382 kts | 255° |
| 2026-05-06 20:18 | 34.14417 | -117.22920 | 13761 ft | 378 kts | 255° |
| 2026-05-06 20:18 | 34.13590 | -117.25925 | 13254 ft | 375 kts | 255° |
| 2026-05-06 20:18 | 34.12760 | -117.28939 | 12756 ft | 371 kts | 255° |
| 2026-05-06 20:18 | 34.11940 | -117.31907 | 12268 ft | 367 kts | 254° |
| 2026-05-06 20:19 | 34.11132 | -117.34840 | 11719 ft | 365 kts | 254° |
| 2026-05-06 20:19 | 34.10333 | -117.37775 | 11253 ft | 360 kts | 255° |
| 2026-05-06 20:19 | 34.09610 | -117.40688 | 10764 ft | 356 kts | 256° |
| 2026-05-06 20:19 | 34.08892 | -117.43563 | 10295 ft | 352 kts | 256° |
| 2026-05-06 20:20 | 34.08184 | -117.46386 | 10026 ft | 345 kts | 255° |
| 2026-05-06 20:20 | 34.07500 | -117.49109 | 9982 ft | 327 kts | 255° |
| 2026-05-06 20:20 | 34.06853 | -117.51650 | 9778 ft | 300 kts | 255° |
| 2026-05-06 20:20 | 34.06242 | -117.54052 | 9488 ft | 293 kts | 256° |
| 2026-05-06 20:21 | 34.05636 | -117.56428 | 9101 ft | 296 kts | 255° |
| 2026-05-06 20:21 | 34.05022 | -117.58839 | 8633 ft | 300 kts | 255° |
| 2026-05-06 20:21 | 34.04382 | -117.61337 | 8649 ft | 314 kts | 255° |
| 2026-05-06 20:21 | 34.03748 | -117.63809 | 9813 ft | 301 kts | 255° |
| 2026-05-06 20:22 | 34.03150 | -117.66137 | 10191 ft | 299 kts | 255° |
| 2026-05-06 20:22 | 34.02531 | -117.68553 | 10127 ft | 295 kts | 255° |
| 2026-05-06 20:22 | 34.02070 | -117.70966 | 9971 ft | 285 kts | 266° |
| 2026-05-06 20:22 | 34.01858 | -117.73341 | 9625 ft | 286 kts | 266° |
| 2026-05-06 20:23 | 34.01623 | -117.75782 | 9221 ft | 289 kts | 266° |
| 2026-05-06 20:23 | 34.01394 | -117.78173 | 8970 ft | 285 kts | 265° |
| 2026-05-06 20:23 | 34.01165 | -117.80515 | 8930 ft | 273 kts | 266° |
| 2026-05-06 20:23 | 34.00939 | -117.82860 | 8979 ft | 282 kts | 266° |
| 2026-05-06 20:24 | 34.00708 | -117.85222 | 8865 ft | 280 kts | 266° |
| 2026-05-06 20:24 | 34.00476 | -117.87584 | 8412 ft | 287 kts | 265° |
| 2026-05-06 20:24 | 34.00240 | -117.90018 | 8068 ft | 287 kts | 265° |
| 2026-05-06 20:24 | 34.00005 | -117.92390 | 7783 ft | 285 kts | 265° |
| 2026-05-06 20:25 | 33.99771 | -117.94782 | 7503 ft | 283 kts | 265° |
| 2026-05-06 20:25 | 33.99539 | -117.97145 | 7235 ft | 281 kts | 265° |
| 2026-05-06 20:25 | 33.99305 | -117.99522 | 6942 ft | 281 kts | 265° |
| 2026-05-06 20:25 | 33.99076 | -118.01837 | 6685 ft | 278 kts | 265° |
| 2026-05-06 20:26 | 33.98844 | -118.04144 | 6597 ft | 269 kts | 266° |
| 2026-05-06 20:26 | 33.98634 | -118.06358 | 6464 ft | 261 kts | 266° |
| 2026-05-06 20:26 | 33.98426 | -118.08506 | 6182 ft | 250 kts | 266° |
| 2026-05-06 20:26 | 33.98226 | -118.10551 | 5831 ft | 245 kts | 266° |
| 2026-05-06 20:27 | 33.98025 | -118.12602 | 5469 ft | 245 kts | 265° |
| 2026-05-06 20:27 | 33.97821 | -118.14619 | 5129 ft | 242 kts | 265° |
| 2026-05-06 20:27 | 33.97620 | -118.16637 | 4801 ft | 241 kts | 265° |
| 2026-05-06 20:27 | 33.97423 | -118.18579 | 4491 ft | 225 kts | 265° |
| 2026-05-06 20:28 | 33.97235 | -118.20425 | 4108 ft | 219 kts | 265° |
| 2026-05-06 20:28 | 33.97053 | -118.22233 | 3737 ft | 212 kts | 264° |
| 2026-05-06 20:28 | 33.96879 | -118.23930 | 3463 ft | 195 kts | 265° |
| 2026-05-06 20:28 | 33.96720 | -118.25511 | 3097 ft | 188 kts | 264° |
| 2026-05-06 20:29 | 33.96563 | -118.27045 | 2857 ft | 176 kts | 264° |
| 2026-05-06 20:29 | 33.96416 | -118.28496 | 2230 ft | 177 kts | 263° |
| 2026-05-06 20:29 | 33.96266 | -118.29948 | 1866 ft | 183 kts | 263° |
| 2026-05-06 20:29 | 33.96118 | -118.31405 | 1620 ft | 164 kts | 263° |
| 2026-05-06 20:30 | 33.95975 | -118.32770 | 1387 ft | 158 kts | 263° |
| 2026-05-06 20:30 | 33.95732 | -118.35153 | 947 ft | 136 kts | 263° |
| 2026-05-06 20:30 | 33.95615 | -118.36285 | 773 ft | 136 kts | 263° |
| 2026-05-06 20:31 | 33.95496 | -118.37424 | 603 ft | 134 kts | 262° |
| 2026-05-06 20:31 | 33.95381 | -118.38537 | 429 ft | 134 kts | 262° |
| 2026-05-06 20:31 | 33.95268 | -118.39653 | 259 ft | 133 kts | 262° |
| 2026-05-06 20:31 | 33.95160 | -118.40706 | 136 ft | 128 kts | 265° |
| 2026-05-06 20:32 | 33.95069 | -118.41618 | 131 ft | 81 kts | 263° |
| 2026-05-06 20:32 | 33.95016 | -118.42121 | 130 ft | 50 kts | 264° |
| 2026-05-06 20:32 | 33.94985 | -118.42404 | 129 ft | 23 kts | 251° |
| 2026-05-06 20:32 | 33.94942 | -118.42542 | 128 ft | 16 kts | 241° |
| 2026-05-06 20:33 | 33.94889 | -118.42647 | 126 ft | 9 kts | 230° |
| 2026-05-06 20:33 | 33.94840 | -118.42698 | 125 ft | 16 kts | 220° |
| 2026-05-06 20:33 | 33.94738 | -118.42773 | 124 ft | 8 kts | 199° |
| 2026-05-06 20:33 | 33.94705 | -118.42782 | 123 ft | 13 kts | 188° |
| 2026-05-06 20:34 | 33.94632 | -118.42710 | 122 ft | 13 kts | 89° |
| 2026-05-06 20:34 | 33.94646 | -118.42577 | 124 ft | 18 kts | 82° |
| 2026-05-06 20:34 | 33.94667 | -118.42382 | 125 ft | 25 kts | 83° |
| 2026-05-06 20:34 | 33.94690 | -118.42173 | 127 ft | 24 kts | 83° |
| 2026-05-06 20:35 | 33.94713 | -118.41972 | 129 ft | 23 kts | 82° |
| 2026-05-06 20:35 | 33.94724 | -118.41864 | 130 ft | 15 kts | 86° |
| 2026-05-06 20:35 | 33.94743 | -118.41668 | 131 ft | 29 kts | 83° |
| 2026-05-06 20:35 | 33.94765 | -118.41464 | 132 ft | 18 kts | 86° |
| 2026-05-06 20:36 | 33.94722 | -118.41389 | 132 ft | 17 kts | 167° |
| 2026-05-06 20:36 | 33.94553 | -118.41365 | 131 ft | 27 kts | 174° |
| 2026-05-06 20:36 | 33.94356 | -118.41341 | 130 ft | 25 kts | 173° |
| 2026-05-06 20:36 | 33.94268 | -118.41295 | 133 ft | 11 kts | 127° |
| 2026-05-06 20:37 | 33.94210 | -118.41213 | 134 ft | 17 kts | 148° |
| 2026-05-06 20:37 | 33.94173 | -118.41139 | 136 ft | 8 kts | 84° |
| 2026-05-06 20:37 | 33.94178 | -118.41098 | 136 ft | 0 kts | 84° |
| 2026-05-06 20:37 | 33.94178 | -118.41096 | 136 ft | 0 kts | 84° |